sensor_id;sensor_type;location;lat;lon;timestamp;temperature;humidity
38398;DHT22;24179;52.094;4.408;2023-04-24T00:01:30;9.20;99.90
38398;DHT22;24179;52.094;4.408;2023-04-24T00:04:31;9.20;99.90
38398;DHT22;24179;52.094;4.408;2023-04-24T00:07:32;9.20;99.90
38398;DHT22;24179;52.094;4.408;2023-04-24T00:10:32;9.20;99.90
38398;DHT22;24179;52.094;4.408;2023-04-24T00:13:33;9.20;99.90
38398;DHT22;24179;52.094;4.408;2023-04-24T00:16:33;9.20;99.90
38398;DHT22;24179;52.094;4.408;2023-04-24T00:19:33;9.20;99.90
38398;DHT22;24179;52.094;4.408;2023-04-24T00:22:34;9.20;99.90
38398;DHT22;24179;52.094;4.408;2023-04-24T00:25:35;9.20;99.90
38398;DHT22;24179;52.094;4.408;2023-04-24T00:28:35;9.20;99.90
38398;DHT22;24179;52.094;4.408;2023-04-24T00:31:36;9.20;99.90
38398;DHT22;24179;52.094;4.408;2023-04-24T00:34:36;9.20;99.90
38398;DHT22;24179;52.094;4.408;2023-04-24T00:37:37;9.20;99.90
38398;DHT22;24179;52.094;4.408;2023-04-24T00:40:37;9.20;99.90
38398;DHT22;24179;52.094;4.408;2023-04-24T00:43:38;9.10;99.90
38398;DHT22;24179;52.094;4.408;2023-04-24T00:46:38;9.10;99.90
38398;DHT22;24179;52.094;4.408;2023-04-24T00:49:39;9.20;99.90
38398;DHT22;24179;52.094;4.408;2023-04-24T00:52:39;9.10;99.90
38398;DHT22;24179;52.094;4.408;2023-04-24T00:55:40;9.20;99.90
38398;DHT22;24179;52.094;4.408;2023-04-24T00:58:41;9.20;99.90
38398;DHT22;24179;52.094;4.408;2023-04-24T01:01:42;9.20;99.90
38398;DHT22;24179;52.094;4.408;2023-04-24T01:04:43;9.10;99.90
38398;DHT22;24179;52.094;4.408;2023-04-24T01:07:44;9.10;99.90
38398;DHT22;24179;52.094;4.408;2023-04-24T01:10:45;9.10;99.90
38398;DHT22;24179;52.094;4.408;2023-04-24T01:13:50;9.10;99.90
38398;DHT22;24179;52.094;4.408;2023-04-24T01:16:51;9.20;99.90
38398;DHT22;24179;52.094;4.408;2023-04-24T01:19:51;9.20;99.90
38398;DHT22;24179;52.094;4.408;2023-04-24T01:22:56;9.20;99.90
38398;DHT22;24179;52.094;4.408;2023-04-24T01:25:57;9.10;99.90
38398;DHT22;24179;52.094;4.408;2023-04-24T01:28:58;9.20;99.90
38398;DHT22;24179;52.094;4.408;2023-04-24T01:31:58;9.20;99.90
38398;DHT22;24179;52.094;4.408;2023-04-24T01:34:58;9.20;99.90
38398;DHT22;24179;52.094;4.408;2023-04-24T01:37:59;9.10;99.90
38398;DHT22;24179;52.094;4.408;2023-04-24T01:41:00;9.10;99.90
38398;DHT22;24179;52.094;4.408;2023-04-24T01:44:01;9.10;99.90
38398;DHT22;24179;52.094;4.408;2023-04-24T01:47:01;9.10;99.90
38398;DHT22;24179;52.094;4.408;2023-04-24T01:50:02;9.00;99.90
38398;DHT22;24179;52.094;4.408;2023-04-24T01:53:03;9.00;99.90
38398;DHT22;24179;52.094;4.408;2023-04-24T01:56:03;9.00;99.90
38398;DHT22;24179;52.094;4.408;2023-04-24T01:59:04;9.00;99.90
38398;DHT22;24179;52.094;4.408;2023-04-24T02:02:05;9.00;99.90
38398;DHT22;24179;52.094;4.408;2023-04-24T02:05:06;9.00;99.90
38398;DHT22;24179;52.094;4.408;2023-04-24T02:08:07;9.10;99.90
38398;DHT22;24179;52.094;4.408;2023-04-24T02:11:08;9.10;99.90
38398;DHT22;24179;52.094;4.408;2023-04-24T02:14:09;9.00;99.90
38398;DHT22;24179;52.094;4.408;2023-04-24T02:17:09;9.10;99.90
38398;DHT22;24179;52.094;4.408;2023-04-24T02:20:10;9.00;99.90
38398;DHT22;24179;52.094;4.408;2023-04-24T02:23:10;9.00;99.90
38398;DHT22;24179;52.094;4.408;2023-04-24T02:26:11;9.00;99.90
38398;DHT22;24179;52.094;4.408;2023-04-24T02:29:11;9.00;99.90
38398;DHT22;24179;52.094;4.408;2023-04-24T02:32:12;8.90;99.90
38398;DHT22;24179;52.094;4.408;2023-04-24T02:35:12;8.90;99.90
38398;DHT22;24179;52.094;4.408;2023-04-24T02:38:13;8.90;99.90
38398;DHT22;24179;52.094;4.408;2023-04-24T02:41:13;8.90;99.90
38398;DHT22;24179;52.094;4.408;2023-04-24T02:44:14;8.90;99.90
38398;DHT22;24179;52.094;4.408;2023-04-24T02:47:14;8.90;99.90
38398;DHT22;24179;52.094;4.408;2023-04-24T02:50:15;8.90;99.90
38398;DHT22;24179;52.094;4.408;2023-04-24T02:53:16;8.90;99.90
38398;DHT22;24179;52.094;4.408;2023-04-24T02:56:20;8.90;99.90
38398;DHT22;24179;52.094;4.408;2023-04-24T02:59:21;8.90;99.90
38398;DHT22;24179;52.094;4.408;2023-04-24T03:02:21;8.90;99.90
38398;DHT22;24179;52.094;4.408;2023-04-24T03:05:22;8.90;99.90
38398;DHT22;24179;52.094;4.408;2023-04-24T03:08:22;8.80;99.90
38398;DHT22;24179;52.094;4.408;2023-04-24T03:11:23;8.80;99.90
38398;DHT22;24179;52.094;4.408;2023-04-24T03:14:23;8.80;99.90
38398;DHT22;24179;52.094;4.408;2023-04-24T03:17:24;8.70;99.90
38398;DHT22;24179;52.094;4.408;2023-04-24T03:20:24;8.70;99.90
38398;DHT22;24179;52.094;4.408;2023-04-24T03:23:25;8.70;99.90
38398;DHT22;24179;52.094;4.408;2023-04-24T03:26:26;8.70;99.90
38398;DHT22;24179;52.094;4.408;2023-04-24T03:29:27;8.70;99.90
38398;DHT22;24179;52.094;4.408;2023-04-24T03:32:28;8.80;99.90
38398;DHT22;24179;52.094;4.408;2023-04-24T03:35:28;8.80;99.90
38398;DHT22;24179;52.094;4.408;2023-04-24T03:38:29;8.80;99.90
38398;DHT22;24179;52.094;4.408;2023-04-24T03:41:29;8.80;99.90
38398;DHT22;24179;52.094;4.408;2023-04-24T03:44:30;8.70;99.90
38398;DHT22;24179;52.094;4.408;2023-04-24T03:47:30;8.80;99.90
38398;DHT22;24179;52.094;4.408;2023-04-24T03:50:31;8.80;99.90
38398;DHT22;24179;52.094;4.408;2023-04-24T03:53:31;8.80;99.90
38398;DHT22;24179;52.094;4.408;2023-04-24T03:56:35;8.80;99.90
38398;DHT22;24179;52.094;4.408;2023-04-24T03:59:35;8.90;99.90
38398;DHT22;24179;52.094;4.408;2023-04-24T04:02:35;8.90;99.90
38398;DHT22;24179;52.094;4.408;2023-04-24T04:05:36;8.90;99.90
38398;DHT22;24179;52.094;4.408;2023-04-24T04:08:36;8.90;99.90
38398;DHT22;24179;52.094;4.408;2023-04-24T04:11:37;8.90;99.90
38398;DHT22;24179;52.094;4.408;2023-04-24T04:14:37;9.00;99.90
38398;DHT22;24179;52.094;4.408;2023-04-24T04:17:38;9.00;99.90
38398;DHT22;24179;52.094;4.408;2023-04-24T04:20:38;9.00;99.90
38398;DHT22;24179;52.094;4.408;2023-04-24T04:23:39;9.00;99.90
38398;DHT22;24179;52.094;4.408;2023-04-24T04:26:40;9.00;99.90
38398;DHT22;24179;52.094;4.408;2023-04-24T04:29:40;8.90;99.90
38398;DHT22;24179;52.094;4.408;2023-04-24T04:32:42;8.90;99.90
38398;DHT22;24179;52.094;4.408;2023-04-24T04:35:42;8.80;99.90
38398;DHT22;24179;52.094;4.408;2023-04-24T04:38:43;8.80;99.90
38398;DHT22;24179;52.094;4.408;2023-04-24T04:41:44;8.80;99.90
38398;DHT22;24179;52.094;4.408;2023-04-24T04:44:49;8.70;99.90
38398;DHT22;24179;52.094;4.408;2023-04-24T04:47:50;8.70;99.90
38398;DHT22;24179;52.094;4.408;2023-04-24T04:50:51;8.70;99.90
38398;DHT22;24179;52.094;4.408;2023-04-24T04:53:51;8.60;99.90
38398;DHT22;24179;52.094;4.408;2023-04-24T04:56:51;8.60;99.90
38398;DHT22;24179;52.094;4.408;2023-04-24T04:59:52;8.50;99.90
38398;DHT22;24179;52.094;4.408;2023-04-24T05:02:53;8.40;99.90
38398;DHT22;24179;52.094;4.408;2023-04-24T05:05:53;8.40;99.90
38398;DHT22;24179;52.094;4.408;2023-04-24T05:08:53;8.40;99.90
38398;DHT22;24179;52.094;4.408;2023-04-24T05:11:57;8.40;99.90
38398;DHT22;24179;52.094;4.408;2023-04-24T05:14:57;8.40;99.90
38398;DHT22;24179;52.094;4.408;2023-04-24T05:17:58;8.40;99.90
38398;DHT22;24179;52.094;4.408;2023-04-24T05:20:58;8.30;99.90
38398;DHT22;24179;52.094;4.408;2023-04-24T05:23:59;8.30;99.90
38398;DHT22;24179;52.094;4.408;2023-04-24T05:26:59;8.30;99.90
38398;DHT22;24179;52.094;4.408;2023-04-24T05:30:00;8.30;99.90
38398;DHT22;24179;52.094;4.408;2023-04-24T05:33:00;8.20;99.90
38398;DHT22;24179;52.094;4.408;2023-04-24T05:36:01;8.10;99.90
38398;DHT22;24179;52.094;4.408;2023-04-24T05:39:01;8.10;99.90
38398;DHT22;24179;52.094;4.408;2023-04-24T05:42:05;8.10;99.90
38398;DHT22;24179;52.094;4.408;2023-04-24T05:45:05;8.20;99.90
38398;DHT22;24179;52.094;4.408;2023-04-24T05:48:06;8.20;99.90
38398;DHT22;24179;52.094;4.408;2023-04-24T05:51:07;8.20;99.90
38398;DHT22;24179;52.094;4.408;2023-04-24T05:54:07;8.20;99.90
38398;DHT22;24179;52.094;4.408;2023-04-24T05:57:07;8.30;99.90
38398;DHT22;24179;52.094;4.408;2023-04-24T06:00:09;8.30;99.90
38398;DHT22;24179;52.094;4.408;2023-04-24T06:03:12;8.20;99.90
38398;DHT22;24179;52.094;4.408;2023-04-24T06:06:12;8.20;99.90
38398;DHT22;24179;52.094;4.408;2023-04-24T06:09:13;8.20;99.90
38398;DHT22;24179;52.094;4.408;2023-04-24T06:12:14;8.20;99.90
38398;DHT22;24179;52.094;4.408;2023-04-24T06:15:17;8.10;99.90
38398;DHT22;24179;52.094;4.408;2023-04-24T06:18:17;8.10;99.90
38398;DHT22;24179;52.094;4.408;2023-04-24T06:21:18;8.10;99.90
38398;DHT22;24179;52.094;4.408;2023-04-24T06:24:18;8.10;99.90
38398;DHT22;24179;52.094;4.408;2023-04-24T06:27:19;8.10;99.90
38398;DHT22;24179;52.094;4.408;2023-04-24T06:30:19;8.10;99.90
38398;DHT22;24179;52.094;4.408;2023-04-24T06:33:20;8.10;99.90
38398;DHT22;24179;52.094;4.408;2023-04-24T06:36:20;8.10;99.90
38398;DHT22;24179;52.094;4.408;2023-04-24T06:39:20;8.10;99.90
38398;DHT22;24179;52.094;4.408;2023-04-24T06:42:21;8.10;99.90
38398;DHT22;24179;52.094;4.408;2023-04-24T06:45:22;8.10;99.90
38398;DHT22;24179;52.094;4.408;2023-04-24T06:48:22;8.10;99.90
38398;DHT22;24179;52.094;4.408;2023-04-24T06:51:24;8.10;99.90
38398;DHT22;24179;52.094;4.408;2023-04-24T06:54:24;8.20;99.90
38398;DHT22;24179;52.094;4.408;2023-04-24T06:57:24;8.20;99.90
38398;DHT22;24179;52.094;4.408;2023-04-24T07:00:25;8.10;99.90
38398;DHT22;24179;52.094;4.408;2023-04-24T07:03:26;8.10;99.90
38398;DHT22;24179;52.094;4.408;2023-04-24T07:06:26;8.10;99.90
38398;DHT22;24179;52.094;4.408;2023-04-24T07:09:27;8.10;99.90
38398;DHT22;24179;52.094;4.408;2023-04-24T07:12:28;8.00;99.90
38398;DHT22;24179;52.094;4.408;2023-04-24T07:15:28;8.10;99.90
38398;DHT22;24179;52.094;4.408;2023-04-24T07:18:28;8.20;99.90
38398;DHT22;24179;52.094;4.408;2023-04-24T07:21:29;8.20;99.90
38398;DHT22;24179;52.094;4.408;2023-04-24T07:24:31;8.10;99.90
38398;DHT22;24179;52.094;4.408;2023-04-24T07:27:33;8.10;99.90
38398;DHT22;24179;52.094;4.408;2023-04-24T07:30:34;8.10;99.90
38398;DHT22;24179;52.094;4.408;2023-04-24T07:33:34;8.20;99.90
38398;DHT22;24179;52.094;4.408;2023-04-24T07:36:36;8.20;99.90
38398;DHT22;24179;52.094;4.408;2023-04-24T07:39:38;8.20;99.90
38398;DHT22;24179;52.094;4.408;2023-04-24T07:42:39;8.10;99.90
38398;DHT22;24179;52.094;4.408;2023-04-24T07:45:39;8.10;99.90
38398;DHT22;24179;52.094;4.408;2023-04-24T07:48:40;8.10;99.90
38398;DHT22;24179;52.094;4.408;2023-04-24T07:51:40;8.00;99.90
38398;DHT22;24179;52.094;4.408;2023-04-24T07:54:41;8.10;99.90
38398;DHT22;24179;52.094;4.408;2023-04-24T07:57:43;8.10;99.90
38398;DHT22;24179;52.094;4.408;2023-04-24T08:00:43;8.20;99.90
38398;DHT22;24179;52.094;4.408;2023-04-24T08:03:44;8.30;99.90
38398;DHT22;24179;52.094;4.408;2023-04-24T08:06:44;8.40;99.90
38398;DHT22;24179;52.094;4.408;2023-04-24T08:09:45;8.60;99.90
38398;DHT22;24179;52.094;4.408;2023-04-24T08:12:45;8.80;99.90
38398;DHT22;24179;52.094;4.408;2023-04-24T08:15:46;8.90;99.90
38398;DHT22;24179;52.094;4.408;2023-04-24T08:18:46;8.90;99.90
38398;DHT22;24179;52.094;4.408;2023-04-24T08:21:47;9.00;99.90
38398;DHT22;24179;52.094;4.408;2023-04-24T08:24:47;9.00;99.90
38398;DHT22;24179;52.094;4.408;2023-04-24T08:27:48;9.00;99.90
38398;DHT22;24179;52.094;4.408;2023-04-24T08:30:48;9.00;99.90
38398;DHT22;24179;52.094;4.408;2023-04-24T08:33:54;9.10;99.90
38398;DHT22;24179;52.094;4.408;2023-04-24T08:36:55;8.90;99.90
38398;DHT22;24179;52.094;4.408;2023-04-24T08:39:55;8.80;99.90
38398;DHT22;24179;52.094;4.408;2023-04-24T08:42:56;8.90;99.90
38398;DHT22;24179;52.094;4.408;2023-04-24T08:45:57;9.00;99.90
38398;DHT22;24179;52.094;4.408;2023-04-24T08:48:57;9.10;99.90
38398;DHT22;24179;52.094;4.408;2023-04-24T08:51:58;9.20;99.90
38398;DHT22;24179;52.094;4.408;2023-04-24T08:55:00;9.30;99.90
38398;DHT22;24179;52.094;4.408;2023-04-24T08:58:01;9.30;99.90
38398;DHT22;24179;52.094;4.408;2023-04-24T09:01:03;9.10;99.90
38398;DHT22;24179;52.094;4.408;2023-04-24T09:04:04;8.90;99.90
38398;DHT22;24179;52.094;4.408;2023-04-24T09:07:06;8.70;99.90
38398;DHT22;24179;52.094;4.408;2023-04-24T09:10:08;8.70;99.90
38398;DHT22;24179;52.094;4.408;2023-04-24T09:13:09;8.60;99.90
38398;DHT22;24179;52.094;4.408;2023-04-24T09:16:11;8.80;99.90
38398;DHT22;24179;52.094;4.408;2023-04-24T09:19:11;9.10;99.90
38398;DHT22;24179;52.094;4.408;2023-04-24T09:22:12;9.40;99.90
38398;DHT22;24179;52.094;4.408;2023-04-24T09:25:13;9.60;99.90
38398;DHT22;24179;52.094;4.408;2023-04-24T09:28:13;9.70;99.90
38398;DHT22;24179;52.094;4.408;2023-04-24T09:31:16;10.10;99.90
38398;DHT22;24179;52.094;4.408;2023-04-24T09:34:22;10.40;99.90
38398;DHT22;24179;52.094;4.408;2023-04-24T09:37:29;10.20;99.90
38398;DHT22;24179;52.094;4.408;2023-04-24T09:40:30;10.10;99.90
38398;DHT22;24179;52.094;4.408;2023-04-24T09:43:30;10.00;99.90
38398;DHT22;24179;52.094;4.408;2023-04-24T09:46:31;9.70;99.90
38398;DHT22;24179;52.094;4.408;2023-04-24T09:49:31;9.70;99.90
38398;DHT22;24179;52.094;4.408;2023-04-24T09:52:42;9.20;99.90
38398;DHT22;24179;52.094;4.408;2023-04-24T09:55:46;8.80;99.90
38398;DHT22;24179;52.094;4.408;2023-04-24T09:58:48;8.70;99.90
38398;DHT22;24179;52.094;4.408;2023-04-24T10:01:49;8.70;99.90
38398;DHT22;24179;52.094;4.408;2023-04-24T10:04:55;8.90;99.90
38398;DHT22;24179;52.094;4.408;2023-04-24T10:07:57;8.90;99.90
38398;DHT22;24179;52.094;4.408;2023-04-24T10:10:58;8.90;99.90
38398;DHT22;24179;52.094;4.408;2023-04-24T10:13:59;9.10;99.90
38398;DHT22;24179;52.094;4.408;2023-04-24T10:17:00;9.10;99.90
38398;DHT22;24179;52.094;4.408;2023-04-24T10:20:00;9.20;99.90
38398;DHT22;24179;52.094;4.408;2023-04-24T10:23:02;9.70;99.90
38398;DHT22;24179;52.094;4.408;2023-04-24T10:26:03;10.20;99.90
38398;DHT22;24179;52.094;4.408;2023-04-24T10:29:03;11.00;99.90
38398;DHT22;24179;52.094;4.408;2023-04-24T10:32:06;11.20;99.90
38398;DHT22;24179;52.094;4.408;2023-04-24T10:35:07;11.20;99.90
38398;DHT22;24179;52.094;4.408;2023-04-24T10:38:10;11.00;99.90
38398;DHT22;24179;52.094;4.408;2023-04-24T10:41:11;10.30;99.90
38398;DHT22;24179;52.094;4.408;2023-04-24T10:44:20;10.20;99.90
38398;DHT22;24179;52.094;4.408;2023-04-24T10:47:22;9.90;99.90
38398;DHT22;24179;52.094;4.408;2023-04-24T10:50:22;9.80;99.90
38398;DHT22;24179;52.094;4.408;2023-04-24T10:53:29;10.10;99.90
38398;DHT22;24179;52.094;4.408;2023-04-24T10:56:32;10.70;99.90
38398;DHT22;24179;52.094;4.408;2023-04-24T10:59:34;11.20;99.90
38398;DHT22;24179;52.094;4.408;2023-04-24T11:02:36;11.60;99.90
38398;DHT22;24179;52.094;4.408;2023-04-24T11:05:50;11.80;99.90
38398;DHT22;24179;52.094;4.408;2023-04-24T11:08:51;12.20;99.90
38398;DHT22;24179;52.094;4.408;2023-04-24T11:11:51;12.10;99.90
38398;DHT22;24179;52.094;4.408;2023-04-24T11:15:02;11.90;99.90
38398;DHT22;24179;52.094;4.408;2023-04-24T11:18:03;12.30;99.90
38398;DHT22;24179;52.094;4.408;2023-04-24T11:21:12;13.20;99.90
38398;DHT22;24179;52.094;4.408;2023-04-24T11:27:39;13.70;99.90
38398;DHT22;24179;52.094;4.408;2023-04-24T11:30:40;13.00;99.90
38398;DHT22;24179;52.094;4.408;2023-04-24T11:33:41;12.40;99.90
38398;DHT22;24179;52.094;4.408;2023-04-24T11:36:45;12.80;99.90
38398;DHT22;24179;52.094;4.408;2023-04-24T11:39:46;12.70;99.90
38398;DHT22;24179;52.094;4.408;2023-04-24T11:42:47;12.60;99.90
38398;DHT22;24179;52.094;4.408;2023-04-24T11:45:48;12.40;99.90
38398;DHT22;24179;52.094;4.408;2023-04-24T11:48:48;12.20;99.90
38398;DHT22;24179;52.094;4.408;2023-04-24T11:51:49;11.60;99.90
38398;DHT22;24179;52.094;4.408;2023-04-24T11:54:50;11.60;99.90
38398;DHT22;24179;52.094;4.408;2023-04-24T11:57:52;11.50;99.90
38398;DHT22;24179;52.094;4.408;2023-04-24T12:00:56;11.70;99.90
38398;DHT22;24179;52.094;4.408;2023-04-24T12:04:01;12.10;99.90
38398;DHT22;24179;52.094;4.408;2023-04-24T12:07:02;11.50;99.90
38398;DHT22;24179;52.094;4.408;2023-04-24T12:10:02;11.50;99.90
38398;DHT22;24179;52.094;4.408;2023-04-24T12:13:08;12.20;99.90
38398;DHT22;24179;52.094;4.408;2023-04-24T12:16:09;12.40;99.90
38398;DHT22;24179;52.094;4.408;2023-04-24T12:19:17;12.90;99.90
38398;DHT22;24179;52.094;4.408;2023-04-24T12:22:18;13.20;99.90
38398;DHT22;24179;52.094;4.408;2023-04-24T12:25:19;12.90;99.90
38398;DHT22;24179;52.094;4.408;2023-04-24T12:28:20;12.30;99.90
38398;DHT22;24179;52.094;4.408;2023-04-24T12:31:21;12.20;99.90
38398;DHT22;24179;52.094;4.408;2023-04-24T12:34:22;12.90;99.90
38398;DHT22;24179;52.094;4.408;2023-04-24T12:37:24;12.70;99.90
38398;DHT22;24179;52.094;4.408;2023-04-24T12:40:25;12.60;99.90
38398;DHT22;24179;52.094;4.408;2023-04-24T12:43:26;12.50;99.90
38398;DHT22;24179;52.094;4.408;2023-04-24T12:46:26;13.10;99.90
38398;DHT22;24179;52.094;4.408;2023-04-24T12:49:27;13.30;99.90
38398;DHT22;24179;52.094;4.408;2023-04-24T12:52:28;13.10;99.90
38398;DHT22;24179;52.094;4.408;2023-04-24T12:55:29;13.50;99.90
38398;DHT22;24179;52.094;4.408;2023-04-24T12:58:29;13.40;99.90
38398;DHT22;24179;52.094;4.408;2023-04-24T13:01:30;12.60;99.90
38398;DHT22;24179;52.094;4.408;2023-04-24T13:04:30;12.20;99.90
38398;DHT22;24179;52.094;4.408;2023-04-24T13:07:31;13.20;99.90
38398;DHT22;24179;52.094;4.408;2023-04-24T13:10:31;12.90;99.90
38398;DHT22;24179;52.094;4.408;2023-04-24T13:13:32;13.00;99.90
38398;DHT22;24179;52.094;4.408;2023-04-24T13:16:32;13.40;99.90
38398;DHT22;24179;52.094;4.408;2023-04-24T13:19:36;13.50;99.90
38398;DHT22;24179;52.094;4.408;2023-04-24T13:22:37;13.80;99.90
38398;DHT22;24179;52.094;4.408;2023-04-24T13:25:37;13.80;99.90
38398;DHT22;24179;52.094;4.408;2023-04-24T13:28:39;12.90;99.90
38398;DHT22;24179;52.094;4.408;2023-04-24T13:31:39;12.60;99.90
38398;DHT22;24179;52.094;4.408;2023-04-24T13:34:40;13.10;99.90
38398;DHT22;24179;52.094;4.408;2023-04-24T13:37:40;13.00;99.90
38398;DHT22;24179;52.094;4.408;2023-04-24T13:40:41;12.20;99.90
38398;DHT22;24179;52.094;4.408;2023-04-24T13:43:41;12.30;99.90
38398;DHT22;24179;52.094;4.408;2023-04-24T13:46:43;13.50;99.90
38398;DHT22;24179;52.094;4.408;2023-04-24T13:49:44;14.20;99.90
38398;DHT22;24179;52.094;4.408;2023-04-24T13:52:45;13.40;99.90
38398;DHT22;24179;52.094;4.408;2023-04-24T13:55:46;11.70;99.90
38398;DHT22;24179;52.094;4.408;2023-04-24T13:58:46;10.70;99.90
38398;DHT22;24179;52.094;4.408;2023-04-24T14:01:46;10.20;99.90
38398;DHT22;24179;52.094;4.408;2023-04-24T14:04:47;9.80;99.90
38398;DHT22;24179;52.094;4.408;2023-04-24T14:07:48;9.80;99.90
38398;DHT22;24179;52.094;4.408;2023-04-24T14:10:49;10.60;99.90
38398;DHT22;24179;52.094;4.408;2023-04-24T14:13:50;11.10;99.90
38398;DHT22;24179;52.094;4.408;2023-04-24T14:16:51;11.50;99.90
38398;DHT22;24179;52.094;4.408;2023-04-24T14:19:51;11.50;99.90
38398;DHT22;24179;52.094;4.408;2023-04-24T14:22:52;11.00;99.90
38398;DHT22;24179;52.094;4.408;2023-04-24T14:25:53;10.90;99.90
38398;DHT22;24179;52.094;4.408;2023-04-24T14:28:54;10.90;99.90
38398;DHT22;24179;52.094;4.408;2023-04-24T14:31:55;10.90;99.90
38398;DHT22;24179;52.094;4.408;2023-04-24T14:34:55;10.90;99.90
38398;DHT22;24179;52.094;4.408;2023-04-24T14:37:56;11.10;99.90
38398;DHT22;24179;52.094;4.408;2023-04-24T14:40:56;11.40;99.90
38398;DHT22;24179;52.094;4.408;2023-04-24T14:43:57;12.80;99.90
38398;DHT22;24179;52.094;4.408;2023-04-24T14:46:58;13.70;99.90
38398;DHT22;24179;52.094;4.408;2023-04-24T14:49:58;13.50;99.90
38398;DHT22;24179;52.094;4.408;2023-04-24T14:52:59;13.30;99.90
38398;DHT22;24179;52.094;4.408;2023-04-24T14:56:02;13.00;99.90
38398;DHT22;24179;52.094;4.408;2023-04-24T14:59:02;11.90;99.90
38398;DHT22;24179;52.094;4.408;2023-04-24T15:02:04;11.40;99.90
38398;DHT22;24179;52.094;4.408;2023-04-24T15:05:04;11.10;99.90
38398;DHT22;24179;52.094;4.408;2023-04-24T15:08:05;10.90;99.90
38398;DHT22;24179;52.094;4.408;2023-04-24T15:11:05;10.80;99.90
38398;DHT22;24179;52.094;4.408;2023-04-24T15:14:06;11.00;99.90
38398;DHT22;24179;52.094;4.408;2023-04-24T15:17:06;11.40;99.90
38398;DHT22;24179;52.094;4.408;2023-04-24T15:20:07;10.90;99.90
38398;DHT22;24179;52.094;4.408;2023-04-24T15:23:08;10.70;99.90
38398;DHT22;24179;52.094;4.408;2023-04-24T15:26:09;10.90;99.90
38398;DHT22;24179;52.094;4.408;2023-04-24T15:29:09;11.40;99.90
38398;DHT22;24179;52.094;4.408;2023-04-24T15:32:10;11.80;99.90
38398;DHT22;24179;52.094;4.408;2023-04-24T15:35:11;11.60;99.90
38398;DHT22;24179;52.094;4.408;2023-04-24T15:38:11;11.40;99.90
38398;DHT22;24179;52.094;4.408;2023-04-24T15:41:11;11.60;99.90
38398;DHT22;24179;52.094;4.408;2023-04-24T15:44:12;12.10;99.90
38398;DHT22;24179;52.094;4.408;2023-04-24T15:47:12;13.60;99.90
38398;DHT22;24179;52.094;4.408;2023-04-24T15:50:14;13.60;99.90
38398;DHT22;24179;52.094;4.408;2023-04-24T15:53:16;12.00;99.90
38398;DHT22;24179;52.094;4.408;2023-04-24T15:56:23;11.00;99.90
38398;DHT22;24179;52.094;4.408;2023-04-24T15:59:23;10.60;99.90
38398;DHT22;24179;52.094;4.408;2023-04-24T16:02:24;10.40;99.90
38398;DHT22;24179;52.094;4.408;2023-04-24T16:05:25;10.50;99.90
38398;DHT22;24179;52.094;4.408;2023-04-24T16:08:25;10.50;99.90
38398;DHT22;24179;52.094;4.408;2023-04-24T16:11:26;10.10;99.90
38398;DHT22;24179;52.094;4.408;2023-04-24T16:14:26;10.10;99.90
38398;DHT22;24179;52.094;4.408;2023-04-24T16:17:27;10.20;99.90
38398;DHT22;24179;52.094;4.408;2023-04-24T16:20:27;10.20;99.90
38398;DHT22;24179;52.094;4.408;2023-04-24T16:23:28;10.20;99.90
38398;DHT22;24179;52.094;4.408;2023-04-24T16:26:28;10.10;99.90
38398;DHT22;24179;52.094;4.408;2023-04-24T16:29:29;10.30;99.90
38398;DHT22;24179;52.094;4.408;2023-04-24T16:32:30;10.30;99.90
38398;DHT22;24179;52.094;4.408;2023-04-24T16:35:30;10.30;99.90
38398;DHT22;24179;52.094;4.408;2023-04-24T16:38:31;10.10;99.90
38398;DHT22;24179;52.094;4.408;2023-04-24T16:41:31;10.00;99.90
38398;DHT22;24179;52.094;4.408;2023-04-24T16:44:32;10.10;99.90
38398;DHT22;24179;52.094;4.408;2023-04-24T16:47:32;10.20;99.90
38398;DHT22;24179;52.094;4.408;2023-04-24T16:50:33;10.10;99.90
38398;DHT22;24179;52.094;4.408;2023-04-24T16:53:34;10.00;99.90
38398;DHT22;24179;52.094;4.408;2023-04-24T16:56:34;9.90;99.90
38398;DHT22;24179;52.094;4.408;2023-04-24T16:59:35;9.80;99.90
38398;DHT22;24179;52.094;4.408;2023-04-24T17:02:38;9.70;99.90
38398;DHT22;24179;52.094;4.408;2023-04-24T17:05:39;9.70;99.90
38398;DHT22;24179;52.094;4.408;2023-04-24T17:08:40;9.70;99.90
38398;DHT22;24179;52.094;4.408;2023-04-24T17:11:40;9.70;99.90
38398;DHT22;24179;52.094;4.408;2023-04-24T17:14:41;9.60;99.90
38398;DHT22;24179;52.094;4.408;2023-04-24T17:17:42;9.50;99.90
38398;DHT22;24179;52.094;4.408;2023-04-24T17:20:43;9.50;99.90
38398;DHT22;24179;52.094;4.408;2023-04-24T17:23:43;9.50;99.90
38398;DHT22;24179;52.094;4.408;2023-04-24T17:26:44;9.40;99.90
38398;DHT22;24179;52.094;4.408;2023-04-24T17:29:44;9.40;99.90
38398;DHT22;24179;52.094;4.408;2023-04-24T17:32:45;9.50;99.90
38398;DHT22;24179;52.094;4.408;2023-04-24T17:35:46;9.50;99.90
38398;DHT22;24179;52.094;4.408;2023-04-24T17:38:47;9.50;99.90
38398;DHT22;24179;52.094;4.408;2023-04-24T17:41:47;9.40;99.90
38398;DHT22;24179;52.094;4.408;2023-04-24T17:44:48;9.40;99.90
38398;DHT22;24179;52.094;4.408;2023-04-24T17:47:48;9.30;99.90
38398;DHT22;24179;52.094;4.408;2023-04-24T17:50:48;9.30;99.90
38398;DHT22;24179;52.094;4.408;2023-04-24T17:53:52;9.30;99.90
38398;DHT22;24179;52.094;4.408;2023-04-24T17:56:53;9.20;99.90
38398;DHT22;24179;52.094;4.408;2023-04-24T17:59:53;9.10;99.90
38398;DHT22;24179;52.094;4.408;2023-04-24T18:02:54;9.00;99.90
38398;DHT22;24179;52.094;4.408;2023-04-24T18:05:59;8.90;99.90
38398;DHT22;24179;52.094;4.408;2023-04-24T18:09:00;8.80;99.90
38398;DHT22;24179;52.094;4.408;2023-04-24T18:12:00;8.80;99.90
38398;DHT22;24179;52.094;4.408;2023-04-24T18:15:01;8.70;99.90
38398;DHT22;24179;52.094;4.408;2023-04-24T18:18:02;8.70;99.90
38398;DHT22;24179;52.094;4.408;2023-04-24T18:21:03;8.60;99.90
38398;DHT22;24179;52.094;4.408;2023-04-24T18:24:03;8.70;99.90
38398;DHT22;24179;52.094;4.408;2023-04-24T18:27:04;8.70;99.90
38398;DHT22;24179;52.094;4.408;2023-04-24T18:30:05;8.70;99.90
38398;DHT22;24179;52.094;4.408;2023-04-24T18:33:06;8.50;99.90
38398;DHT22;24179;52.094;4.408;2023-04-24T18:36:06;8.50;99.90
38398;DHT22;24179;52.094;4.408;2023-04-24T18:39:07;8.50;99.90
38398;DHT22;24179;52.094;4.408;2023-04-24T18:42:07;8.40;99.90
38398;DHT22;24179;52.094;4.408;2023-04-24T18:45:08;8.40;99.90
38398;DHT22;24179;52.094;4.408;2023-04-24T18:48:08;8.40;99.90
38398;DHT22;24179;52.094;4.408;2023-04-24T18:51:09;8.40;99.90
38398;DHT22;24179;52.094;4.408;2023-04-24T18:54:09;8.40;99.90
38398;DHT22;24179;52.094;4.408;2023-04-24T18:57:13;8.40;99.90
38398;DHT22;24179;52.094;4.408;2023-04-24T19:00:14;8.40;99.90
38398;DHT22;24179;52.094;4.408;2023-04-24T19:03:14;8.40;99.90
38398;DHT22;24179;52.094;4.408;2023-04-24T19:06:15;8.30;99.90
38398;DHT22;24179;52.094;4.408;2023-04-24T19:09:15;8.30;99.90
38398;DHT22;24179;52.094;4.408;2023-04-24T19:12:16;8.30;99.90
38398;DHT22;24179;52.094;4.408;2023-04-24T19:15:16;8.40;99.90
38398;DHT22;24179;52.094;4.408;2023-04-24T19:18:20;8.30;99.90